createdAt,value
2018-09-25T00:02:28.958Z,3.00
2018-09-25T00:05:03.089Z,3.00
2018-09-25T00:07:36.920Z,2.90
2018-09-25T00:10:11.211Z,2.80
2018-09-25T00:12:45.079Z,2.80
2018-09-25T00:15:19.071Z,2.80
2018-09-25T00:17:53.118Z,2.80
2018-09-25T00:20:27.208Z,2.80
2018-09-25T00:23:01.082Z,2.80
2018-09-25T00:25:35.053Z,2.70
2018-09-25T00:28:08.919Z,2.80
2018-09-25T00:30:42.830Z,2.70
2018-09-25T00:33:16.665Z,2.80
2018-09-25T00:35:50.766Z,2.80
2018-09-25T00:38:25.681Z,2.90
2018-09-25T00:40:59.605Z,2.90
2018-09-25T00:43:33.431Z,2.80
2018-09-25T00:46:07.340Z,2.70
2018-09-25T00:48:41.121Z,2.70
2018-09-25T00:51:14.931Z,2.80
2018-09-25T00:53:48.941Z,2.70
2018-09-25T00:56:22.824Z,2.70
2018-09-25T00:58:56.713Z,2.70
2018-09-25T01:01:30.701Z,2.70
2018-09-25T01:04:04.675Z,2.60
2018-09-25T01:06:38.801Z,2.50
2018-09-25T01:09:13.752Z,2.50
2018-09-25T01:11:47.780Z,2.40
2018-09-25T01:14:21.585Z,2.40
2018-09-25T01:16:55.461Z,2.50
2018-09-25T01:19:29.274Z,2.50
2018-09-25T01:22:03.181Z,2.40
2018-09-25T01:24:37.130Z,2.40
2018-09-25T01:27:10.976Z,2.30
2018-09-25T01:29:44.685Z,2.30
2018-09-25T01:32:18.710Z,2.30
2018-09-25T01:34:52.630Z,2.20
2018-09-25T01:37:26.552Z,2.30
2018-09-25T01:40:00.550Z,2.20
2018-09-25T01:42:34.676Z,2.30
2018-09-25T01:45:08.592Z,2.30
2018-09-25T01:47:42.467Z,2.30
2018-09-25T01:50:16.540Z,2.20
2018-09-25T01:52:50.548Z,2.20
2018-09-25T01:55:24.477Z,2.20
2018-09-25T01:57:58.345Z,2.20
2018-09-25T02:00:32.231Z,2.10
2018-09-25T02:03:06.900Z,2.10
2018-09-25T02:05:40.810Z,2.10
2018-09-25T02:08:14.693Z,2.10
2018-09-25T02:10:48.541Z,2.10
2018-09-25T02:13:22.513Z,2.10
2018-09-25T02:15:56.452Z,2.10
2018-09-25T02:18:30.389Z,2.10
2018-09-25T02:21:04.281Z,2.00
2018-09-25T02:26:11.838Z,1.90
2018-09-25T02:28:45.724Z,1.90
2018-09-25T02:31:19.540Z,1.80
2018-09-25T02:33:53.997Z,1.70
2018-09-25T02:36:27.822Z,1.70
2018-09-25T02:39:01.933Z,1.60
2018-09-25T02:41:35.848Z,1.60
2018-09-25T02:44:09.680Z,1.60
2018-09-25T02:46:43.745Z,1.60
2018-09-25T02:49:17.642Z,1.60
2018-09-25T02:51:51.559Z,1.60
2018-09-25T02:54:25.350Z,1.50
2018-09-25T02:56:59.353Z,1.50
2018-09-25T02:59:33.325Z,1.40
2018-09-25T03:02:07.160Z,1.30
2018-09-25T03:04:41.123Z,1.30
2018-09-25T03:07:14.867Z,1.30
2018-09-25T03:09:48.941Z,1.20
2018-09-25T03:12:22.793Z,1.20
2018-09-25T03:14:56.863Z,1.20
2018-09-25T03:17:31.016Z,1.20
2018-09-25T03:20:04.921Z,1.20
2018-09-25T03:22:39.350Z,1.30
2018-09-25T03:25:13.402Z,1.10
2018-09-25T03:27:47.379Z,1.10
2018-09-25T03:30:21.345Z,1.10
2018-09-25T03:32:55.081Z,1.10
2018-09-25T03:35:28.932Z,1.10
2018-09-25T03:38:02.745Z,1.10
2018-09-25T03:40:37.240Z,1.00
2018-09-25T03:43:11.252Z,1.00
2018-09-25T03:45:45.190Z,1.00
2018-09-25T03:48:18.957Z,0.90
2018-09-25T03:50:52.913Z,0.80
2018-09-25T03:53:26.778Z,0.80
2018-09-25T03:56:00.577Z,0.80
2018-09-25T03:58:34.476Z,0.90
2018-09-25T04:01:08.553Z,0.90
2018-09-25T04:03:42.416Z,0.90
2018-09-25T04:06:16.402Z,0.90
2018-09-25T04:08:50.327Z,0.80
2018-09-25T04:11:24.229Z,0.80
2018-09-25T04:13:58.043Z,0.80
2018-09-25T04:16:31.973Z,0.80
2018-09-25T04:19:05.869Z,0.90
2018-09-25T04:21:39.673Z,0.80
2018-09-25T04:24:13.452Z,0.70
2018-09-25T04:26:47.291Z,0.70
2018-09-25T04:29:20.981Z,0.70
2018-09-25T04:31:54.971Z,0.60
2018-09-25T04:34:28.842Z,0.60
2018-09-25T04:37:02.722Z,0.60
2018-09-25T04:39:36.672Z,0.60
2018-09-25T04:42:11.055Z,0.70
2018-09-25T04:44:45.192Z,0.70
2018-09-25T04:47:19.208Z,0.70
2018-09-25T04:49:53.221Z,0.70
2018-09-25T04:52:27.236Z,0.80
2018-09-25T04:55:01.134Z,0.70
2018-09-25T05:00:08.777Z,0.70
2018-09-25T05:02:42.571Z,0.60
2018-09-25T05:05:16.444Z,0.50
2018-09-25T05:07:50.275Z,0.40
2018-09-25T05:10:24.579Z,0.40
2018-09-25T05:12:58.599Z,0.50
2018-09-25T05:15:32.349Z,0.50
2018-09-25T05:18:06.176Z,0.30
2018-09-25T05:20:41.333Z,0.40
2018-09-25T05:23:15.174Z,0.40
2018-09-25T05:25:49.100Z,0.40
2018-09-25T05:28:22.969Z,0.40
2018-09-25T05:30:56.754Z,0.40
2018-09-25T05:33:30.725Z,0.40
2018-09-25T05:36:04.611Z,0.40
2018-09-25T05:38:38.623Z,0.40
2018-09-25T05:41:12.425Z,0.40
2018-09-25T05:43:46.319Z,0.50
2018-09-25T05:46:21.097Z,0.50
2018-09-25T05:48:55.008Z,0.50
2018-09-25T05:51:28.868Z,0.60
2018-09-25T05:54:02.850Z,0.70
2018-09-25T05:56:36.761Z,0.60
2018-09-25T05:59:10.577Z,0.70
2018-09-25T06:01:44.877Z,0.70
2018-09-25T06:04:18.732Z,0.80
2018-09-25T06:06:52.583Z,0.80
2018-09-25T06:09:33.282Z,0.90
2018-09-25T06:12:07.288Z,0.90
2018-09-25T06:14:41.259Z,1.00
2018-09-25T06:17:15.158Z,1.00
2018-09-25T06:19:49.099Z,1.10
2018-09-25T06:22:22.963Z,1.20
2018-09-25T06:24:56.867Z,1.20
2018-09-25T06:27:30.705Z,1.30
2018-09-25T06:30:04.862Z,1.30
2018-09-25T06:32:38.801Z,1.40
2018-09-25T06:35:12.661Z,1.50
2018-09-25T06:37:46.442Z,1.50
2018-09-25T06:40:20.471Z,1.60
2018-09-25T06:42:54.302Z,1.70
2018-09-25T06:45:28.243Z,1.80
2018-09-25T06:48:02.072Z,2.00
2018-09-25T06:50:36.250Z,2.10
2018-09-25T06:53:10.149Z,2.30
2018-09-25T06:55:43.911Z,2.60
2018-09-25T06:58:17.860Z,2.70
2018-09-25T07:00:52.512Z,2.80
2018-09-25T07:03:26.697Z,3.00
2018-09-25T07:06:00.705Z,3.10
2018-09-25T07:08:34.575Z,3.30
2018-09-25T07:11:08.420Z,3.50
2018-09-25T07:13:42.437Z,3.60
2018-09-25T07:16:16.758Z,3.80
2018-09-25T07:18:50.803Z,4.10
2018-09-25T07:21:24.652Z,4.40
2018-09-25T07:23:59.042Z,4.70
2018-09-25T07:26:33.243Z,5.00
2018-09-25T07:29:07.279Z,5.30
2018-09-25T07:31:42.072Z,5.60
2018-09-25T07:34:15.985Z,5.80
2018-09-25T07:36:50.067Z,6.10
2018-09-25T07:39:24.061Z,6.20
2018-09-25T07:41:58.144Z,6.50
2018-09-25T07:44:32.027Z,6.70
2018-09-25T07:47:05.867Z,6.70
2018-09-25T07:49:39.757Z,7.00
2018-09-25T07:52:13.623Z,7.10
2018-09-25T07:54:47.568Z,7.30
2018-09-25T07:57:21.542Z,7.50
2018-09-25T07:59:55.378Z,7.70
2018-09-25T08:02:29.349Z,7.80
2018-09-25T08:05:03.362Z,8.10
2018-09-25T08:07:37.381Z,8.30
2018-09-25T08:10:11.250Z,8.50
2018-09-25T08:12:45.325Z,8.50
2018-09-25T08:15:19.269Z,8.70
2018-09-25T08:17:53.341Z,8.90
2018-09-25T08:20:27.113Z,9.10
2018-09-25T08:23:00.977Z,9.20
2018-09-25T08:25:34.861Z,9.30
2018-09-25T08:28:08.943Z,9.80
2018-09-25T08:30:42.942Z,10.10
2018-09-25T08:33:16.716Z,10.20
2018-09-25T08:35:50.526Z,10.40
2018-09-25T08:38:24.623Z,10.80
2018-09-25T08:40:58.955Z,11.00
2018-09-25T08:43:32.752Z,11.30
2018-09-25T08:46:06.709Z,11.70
2018-09-25T08:48:40.746Z,11.90
2018-09-25T08:51:14.649Z,11.80
2018-09-25T08:53:48.670Z,11.80
2018-09-25T08:56:22.616Z,11.90
2018-09-25T08:58:57.081Z,12.00
2018-09-25T09:01:30.925Z,12.50
2018-09-25T09:04:04.888Z,12.50
2018-09-25T09:06:38.750Z,13.10
2018-09-25T09:09:14.873Z,12.70
2018-09-25T09:11:49.311Z,12.40
2018-09-25T09:14:23.194Z,12.90
2018-09-25T09:16:57.084Z,13.20
2018-09-25T09:19:31.274Z,13.30
2018-09-25T09:22:05.281Z,12.80
2018-09-25T09:24:39.282Z,12.70
2018-09-25T09:27:13.281Z,13.30
2018-09-25T09:29:47.133Z,13.60
2018-09-25T09:32:21.015Z,13.90
2018-09-25T09:34:54.932Z,13.30
2018-09-25T09:37:28.885Z,13.40
2018-09-25T09:40:02.907Z,13.60
2018-09-25T09:42:36.761Z,13.50
2018-09-25T09:45:10.845Z,13.90
2018-09-25T09:47:44.705Z,13.80
2018-09-25T09:50:19.251Z,14.10
2018-09-25T09:52:53.270Z,14.10
2018-09-25T09:55:27.250Z,14.40
2018-09-25T09:58:01.274Z,14.60
2018-09-25T10:00:35.189Z,14.90
2018-09-25T10:05:43.300Z,15.30
2018-09-25T10:08:17.328Z,15.10
2018-09-25T10:10:51.195Z,15.30
2018-09-25T10:13:25.181Z,15.10
2018-09-25T10:15:59.141Z,14.90
2018-09-25T10:18:32.999Z,14.70
2018-09-25T10:21:06.661Z,14.10
2018-09-25T10:23:40.449Z,14.10
2018-09-25T10:26:14.366Z,14.20
2018-09-25T10:28:48.184Z,14.00
2018-09-25T10:31:22.190Z,13.90
2018-09-25T10:33:56.180Z,14.40
2018-09-25T10:39:03.795Z,14.90
2018-09-25T10:41:37.669Z,15.20
2018-09-25T10:44:12.035Z,15.10
2018-09-25T10:46:45.915Z,15.00
2018-09-25T10:49:19.889Z,14.90
2018-09-25T10:51:53.750Z,14.30
2018-09-25T10:54:27.783Z,14.80
2018-09-25T10:57:01.702Z,15.10
2018-09-25T10:59:35.727Z,15.00
2018-09-25T11:02:09.401Z,15.00
2018-09-25T11:04:44.075Z,15.50
2018-09-25T11:07:18.624Z,16.00
2018-09-25T11:09:52.522Z,15.80
2018-09-25T11:12:26.353Z,15.30
2018-09-25T11:15:00.258Z,15.60
2018-09-25T11:17:34.120Z,15.80
2018-09-25T11:20:08.199Z,15.60
2018-09-25T11:22:42.084Z,15.20
2018-09-25T11:25:15.883Z,15.10
2018-09-25T11:27:49.684Z,15.70
2018-09-25T11:30:23.652Z,15.70
2018-09-25T11:32:57.546Z,16.20
2018-09-25T11:35:31.431Z,16.10
2018-09-25T11:38:05.163Z,15.50
2018-09-25T11:40:39.141Z,15.80
2018-09-25T11:43:13.213Z,15.90
2018-09-25T11:45:47.067Z,16.00
2018-09-25T11:48:20.895Z,16.00
2018-09-25T11:50:54.669Z,16.20
2018-09-25T11:53:28.496Z,15.60
2018-09-25T11:56:02.893Z,15.70
2018-09-25T12:05:48.900Z,15.00
2018-09-25T12:08:22.803Z,15.70
2018-09-25T12:10:56.825Z,16.00
2018-09-25T12:13:30.989Z,15.40
2018-09-25T12:16:04.856Z,15.70
2018-09-25T12:18:38.922Z,16.00
2018-09-25T12:21:13.108Z,16.00
2018-09-25T12:23:47.075Z,16.00
2018-09-25T12:26:20.981Z,15.90
2018-09-25T12:28:55.116Z,16.30
2018-09-25T12:31:29.115Z,16.20
2018-09-25T12:34:03.261Z,16.40
2018-09-25T12:36:36.981Z,16.40
2018-09-25T12:39:12.933Z,16.30
2018-09-25T12:41:47.216Z,16.80
2018-09-25T12:44:22.069Z,17.00
2018-09-25T12:46:55.968Z,16.80
2018-09-25T12:49:29.954Z,16.50
2018-09-25T12:52:03.861Z,16.70
2018-09-25T12:54:37.841Z,16.70
2018-09-25T12:57:11.797Z,16.10
2018-09-25T12:59:45.732Z,16.00
2018-09-25T13:02:19.711Z,16.30
2018-09-25T13:04:53.698Z,16.40
2018-09-25T13:07:27.593Z,16.30
2018-09-25T13:10:01.626Z,16.80
2018-09-25T13:12:35.725Z,16.80
2018-09-25T13:15:09.754Z,17.00
2018-09-25T13:17:43.621Z,17.10
2018-09-25T13:20:17.574Z,17.00
2018-09-25T13:22:51.393Z,16.70
2018-09-25T13:25:25.301Z,16.60
2018-09-25T13:27:59.186Z,17.00
2018-09-25T13:30:33.149Z,17.10
2018-09-25T13:33:07.229Z,17.20
2018-09-25T13:35:41.151Z,16.90
2018-09-25T13:38:14.911Z,16.90
2018-09-25T13:40:48.852Z,16.80
2018-09-25T13:43:22.762Z,16.80
2018-09-25T13:45:56.609Z,16.70
2018-09-25T13:48:30.561Z,16.50
2018-09-25T13:51:04.354Z,16.50
2018-09-25T13:53:38.378Z,16.50
2018-09-25T13:56:12.457Z,16.90
2018-09-25T13:58:46.393Z,16.70
2018-09-25T14:01:20.312Z,16.60
2018-09-25T14:03:54.010Z,16.30
2018-09-25T14:06:27.794Z,15.70
2018-09-25T14:09:01.661Z,15.50
2018-09-25T14:11:35.677Z,15.20
2018-09-25T14:14:09.840Z,15.40
2018-09-25T14:16:43.643Z,15.60
2018-09-25T14:19:17.496Z,15.60
2018-09-25T14:21:51.421Z,15.50
2018-09-25T14:24:25.087Z,14.90
2018-09-25T14:26:58.968Z,14.70
2018-09-25T14:29:33.355Z,14.20
2018-09-25T14:32:07.200Z,13.80
2018-09-25T14:34:41.106Z,13.80
2018-09-25T14:37:14.992Z,13.50
2018-09-25T14:39:49.021Z,13.70
2018-09-25T14:42:23.060Z,13.50
2018-09-25T14:44:57.086Z,13.40
2018-09-25T14:47:31.115Z,13.30
2018-09-25T14:50:04.884Z,13.20
2018-09-25T14:52:38.638Z,13.20
2018-09-25T14:55:12.779Z,13.20
2018-09-25T14:57:47.121Z,13.10
2018-09-25T15:00:21.083Z,13.00
2018-09-25T15:02:54.991Z,13.10
2018-09-25T15:05:28.834Z,13.00
2018-09-25T15:08:02.863Z,12.80
2018-09-25T15:10:36.973Z,12.80
2018-09-25T15:13:11.675Z,12.60
2018-09-25T15:15:45.760Z,12.60
2018-09-25T15:18:19.653Z,12.50
2018-09-25T15:20:53.860Z,12.40
2018-09-25T15:23:27.945Z,12.40
2018-09-25T15:26:01.904Z,12.30
2018-09-25T15:28:35.642Z,12.10
2018-09-25T15:31:09.672Z,12.00
2018-09-25T15:33:43.865Z,12.00
2018-09-25T15:36:17.748Z,11.90
2018-09-25T15:38:51.845Z,11.80
2018-09-25T15:41:25.738Z,11.80
2018-09-25T15:43:59.658Z,11.70
2018-09-25T15:46:33.574Z,11.60
2018-09-25T15:49:07.487Z,11.50
2018-09-25T15:51:41.506Z,11.50
2018-09-25T15:54:15.465Z,11.30
2018-09-25T15:56:49.279Z,11.30
2018-09-25T15:59:23.062Z,11.20
2018-09-25T16:01:57.129Z,11.30
2018-09-25T16:04:31.114Z,11.20
2018-09-25T16:07:05.154Z,11.20
2018-09-25T16:09:39.018Z,11.10
2018-09-25T16:12:13.052Z,11.00
2018-09-25T16:14:46.921Z,10.90
2018-09-25T16:17:20.835Z,10.90
2018-09-25T16:19:54.774Z,10.90
2018-09-25T16:22:28.785Z,10.80
2018-09-25T16:25:02.823Z,10.70
2018-09-25T16:27:36.745Z,10.70
2018-09-25T16:30:10.894Z,10.60
2018-09-25T16:32:45.728Z,10.60
2018-09-25T16:35:19.746Z,10.50
2018-09-25T16:37:53.713Z,10.50
2018-09-25T16:40:27.672Z,10.40
2018-09-25T16:43:01.722Z,10.30
2018-09-25T16:45:35.720Z,10.20
2018-09-25T16:48:09.493Z,10.10
2018-09-25T16:50:43.325Z,10.00
2018-09-25T16:53:17.388Z,10.00
2018-09-25T16:55:51.268Z,9.90
2018-09-25T16:58:25.392Z,9.80
2018-09-25T17:00:59.282Z,9.70
2018-09-25T17:03:33.147Z,9.60
2018-09-25T17:06:07.040Z,9.50
2018-09-25T17:08:40.830Z,9.20
2018-09-25T17:11:14.872Z,9.00
2018-09-25T17:13:48.814Z,8.90
2018-09-25T17:16:22.802Z,8.70
2018-09-25T17:18:57.666Z,8.70
2018-09-25T17:21:31.602Z,8.50
2018-09-25T17:24:05.612Z,8.40
2018-09-25T17:26:39.536Z,8.30
2018-09-25T17:29:13.394Z,8.30
2018-09-25T17:31:47.360Z,8.20
2018-09-25T17:34:21.245Z,8.10
2018-09-25T17:36:55.303Z,8.10
2018-09-25T17:39:29.313Z,8.00
2018-09-25T17:42:03.173Z,7.90
2018-09-25T17:44:37.168Z,7.90
2018-09-25T17:47:11.272Z,7.90
2018-09-25T17:49:45.169Z,7.90
2018-09-25T17:52:19.261Z,7.80
2018-09-25T17:54:53.091Z,7.80
2018-09-25T17:57:27.031Z,7.80
2018-09-25T18:00:00.966Z,7.60
2018-09-25T18:02:34.911Z,7.50
2018-09-25T18:05:08.870Z,7.40
2018-09-25T18:07:42.800Z,7.40
2018-09-25T18:10:16.700Z,7.50
2018-09-25T18:12:50.742Z,7.40
2018-09-25T18:15:24.679Z,7.40
2018-09-25T18:17:58.489Z,7.40
2018-09-25T18:20:32.516Z,7.20
2018-09-25T18:23:06.642Z,7.10
2018-09-25T18:25:40.546Z,7.10
2018-09-25T18:28:15.168Z,7.00
2018-09-25T18:30:48.981Z,6.90
2018-09-25T18:33:23.024Z,6.80
2018-09-25T18:35:57.569Z,6.70
2018-09-25T18:38:31.687Z,6.50
2018-09-25T18:41:05.630Z,6.40
2018-09-25T18:43:39.743Z,6.20
2018-09-25T18:46:13.585Z,6.00
2018-09-25T18:48:47.407Z,5.80
2018-09-25T18:51:21.465Z,5.80
2018-09-25T18:53:55.512Z,5.60
2018-09-25T18:56:29.441Z,5.50
2018-09-25T18:59:03.301Z,5.40
2018-09-25T19:01:37.028Z,5.50
2018-09-25T19:04:10.993Z,5.40
2018-09-25T19:06:45.006Z,5.30
2018-09-25T19:09:19.014Z,5.20
2018-09-25T19:11:52.913Z,5.20
2018-09-25T19:14:26.884Z,5.10
2018-09-25T19:17:01.460Z,5.10
2018-09-25T19:19:35.265Z,5.00
2018-09-25T19:22:09.319Z,5.00
2018-09-25T19:24:43.329Z,4.90
2018-09-25T19:27:17.361Z,4.80
2018-09-25T19:29:51.230Z,4.70
2018-09-25T19:32:25.216Z,4.60
2018-09-25T19:34:59.183Z,4.60
2018-09-25T19:37:33.333Z,4.50
2018-09-25T19:40:07.293Z,4.50
2018-09-25T19:42:41.296Z,4.40
2018-09-25T19:45:15.126Z,4.40
2018-09-25T19:47:49.713Z,4.20
2018-09-25T19:50:23.718Z,4.20
2018-09-25T19:52:57.647Z,4.10
2018-09-25T19:55:31.367Z,4.00
2018-09-25T19:58:05.393Z,4.00
2018-09-25T20:00:39.313Z,3.90
2018-09-25T20:03:13.183Z,3.90
2018-09-25T20:05:47.398Z,3.80
2018-09-25T20:08:21.831Z,3.70
2018-09-25T20:10:55.713Z,3.70
2018-09-25T20:13:29.751Z,3.70
2018-09-25T20:16:03.633Z,3.60
2018-09-25T20:18:38.040Z,3.60
2018-09-25T20:21:12.084Z,3.50
2018-09-25T20:23:46.989Z,3.40
2018-09-25T20:26:21.889Z,3.40
2018-09-25T20:28:55.830Z,3.30
2018-09-25T20:31:29.840Z,3.20
2018-09-25T20:34:03.844Z,3.10
2018-09-25T20:36:37.762Z,3.20
2018-09-25T20:39:12.579Z,3.20
2018-09-25T20:41:47.085Z,3.10
2018-09-25T20:44:21.173Z,3.00
2018-09-25T20:46:55.072Z,3.10
2018-09-25T20:49:29.977Z,3.00
2018-09-25T20:52:04.041Z,2.90
2018-09-25T20:54:37.897Z,2.80
2018-09-25T20:57:11.983Z,2.80
2018-09-25T20:59:45.906Z,2.70
2018-09-25T21:04:53.250Z,2.80
2018-09-25T21:07:27.478Z,2.70
2018-09-25T21:10:01.260Z,2.60
2018-09-25T21:12:35.066Z,2.60
2018-09-25T21:15:09.170Z,2.60
2018-09-25T21:17:42.970Z,2.50
2018-09-25T21:20:16.924Z,2.50
2018-09-25T21:22:51.036Z,2.40
2018-09-25T21:25:25.002Z,2.30
2018-09-25T21:27:58.850Z,2.30
2018-09-25T21:30:33.018Z,2.30
2018-09-25T21:33:06.921Z,2.20
2018-09-25T21:35:41.083Z,2.30
2018-09-25T21:38:15.073Z,2.20
2018-09-25T21:40:49.092Z,2.20
2018-09-25T21:43:22.894Z,2.10
2018-09-25T21:45:56.728Z,2.10
2018-09-25T21:48:30.731Z,2.00
2018-09-25T21:51:04.742Z,2.00
2018-09-25T21:53:38.649Z,2.00
2018-09-25T21:56:12.811Z,2.00
2018-09-25T21:58:46.861Z,2.00
2018-09-25T22:01:20.766Z,1.90
2018-09-25T22:06:27.937Z,1.90
2018-09-25T22:09:01.948Z,1.90
2018-09-25T22:11:35.819Z,1.80
2018-09-25T22:14:09.757Z,1.80
2018-09-25T22:16:43.537Z,1.80
2018-09-25T22:19:17.550Z,1.80
2018-09-25T22:21:51.562Z,1.80
2018-09-25T22:24:25.749Z,1.70
2018-09-25T22:26:59.541Z,1.70
2018-09-25T22:29:33.486Z,1.70
2018-09-25T22:32:07.328Z,1.70
2018-09-25T22:34:41.221Z,1.50
2018-09-25T22:37:15.241Z,1.50
2018-09-25T22:39:49.033Z,1.40
2018-09-25T22:42:22.865Z,1.50
2018-09-25T22:44:56.838Z,1.50
2018-09-25T22:47:30.753Z,1.50
2018-09-25T22:50:04.654Z,1.30
2018-09-25T22:52:38.460Z,1.20
2018-09-25T22:55:12.589Z,1.20
2018-09-25T22:57:46.458Z,1.20
2018-09-25T23:00:20.422Z,1.20
2018-09-25T23:02:54.231Z,1.20
2018-09-25T23:05:28.233Z,1.20
2018-09-25T23:08:02.105Z,1.10
2018-09-25T23:10:36.141Z,1.00
2018-09-25T23:13:10.187Z,1.00
2018-09-25T23:15:44.061Z,1.00
2018-09-25T23:18:17.932Z,1.00
2018-09-25T23:20:51.854Z,0.90
2018-09-25T23:23:25.744Z,0.90
2018-09-25T23:25:59.665Z,0.80
2018-09-25T23:28:33.707Z,0.80
2018-09-25T23:31:07.603Z,0.70
2018-09-25T23:33:42.166Z,0.70
2018-09-25T23:36:16.253Z,0.70
2018-09-25T23:38:50.060Z,0.60
2018-09-25T23:41:22.860Z,0.60
2018-09-25T23:43:55.621Z,0.50
2018-09-25T23:47:27.832Z,0.50
2018-09-25T23:50:03.936Z,0.50
2018-09-25T23:52:37.856Z,0.50
2018-09-25T23:55:17.284Z,0.50
2018-09-25T23:57:48.822Z,0.50
